sensor_id;sensor_type;location;lat;lon;timestamp;P1;durP1;ratioP1;P2;durP2;ratioP2
21663;SDS011;10993;52.510;13.456;2022-10-16T00:00:22;4.53;;;2.35;;
21663;SDS011;10993;52.510;13.456;2022-10-16T00:05:22;4.75;;;2.58;;
21663;SDS011;10993;52.510;13.456;2022-10-16T00:10:23;4.40;;;2.22;;
21663;SDS011;10993;52.510;13.456;2022-10-16T00:15:25;4.80;;;2.38;;
21663;SDS011;10993;52.510;13.456;2022-10-16T00:20:25;4.80;;;2.38;;
21663;SDS011;10993;52.510;13.456;2022-10-16T00:25:26;5.78;;;2.55;;
21663;SDS011;10993;52.510;13.456;2022-10-16T00:30:27;3.47;;;2.00;;
21663;SDS011;10993;52.510;13.456;2022-10-16T00:35:28;4.60;;;2.30;;
21663;SDS011;10993;52.510;13.456;2022-10-16T00:40:30;5.63;;;2.20;;
21663;SDS011;10993;52.510;13.456;2022-10-16T00:45:33;4.07;;;1.98;;
21663;SDS011;10993;52.510;13.456;2022-10-16T00:50:36;3.45;;;1.90;;
21663;SDS011;10993;52.510;13.456;2022-10-16T00:55:37;3.92;;;2.13;;
21663;SDS011;10993;52.510;13.456;2022-10-16T01:00:39;2.80;;;1.55;;
21663;SDS011;10993;52.510;13.456;2022-10-16T01:05:41;4.68;;;2.17;;
21663;SDS011;10993;52.510;13.456;2022-10-16T01:10:51;3.20;;;1.73;;
21663;SDS011;10993;52.510;13.456;2022-10-16T01:16:00;4.13;;;1.90;;
21663;SDS011;10993;52.510;13.456;2022-10-16T01:21:08;3.25;;;1.60;;
21663;SDS011;10993;52.510;13.456;2022-10-16T01:26:13;4.22;;;1.80;;
21663;SDS011;10993;52.510;13.456;2022-10-16T01:31:22;3.45;;;1.95;;
21663;SDS011;10993;52.510;13.456;2022-10-16T01:36:26;2.90;;;1.60;;
21663;SDS011;10993;52.510;13.456;2022-10-16T01:41:31;2.47;;;1.30;;
21663;SDS011;10993;52.510;13.456;2022-10-16T01:46:36;5.80;;;2.70;;
21663;SDS011;10993;52.510;13.456;2022-10-16T01:51:39;5.85;;;2.92;;
21663;SDS011;10993;52.510;13.456;2022-10-16T01:56:42;3.25;;;1.77;;
21663;SDS011;10993;52.510;13.456;2022-10-16T02:01:45;4.57;;;2.20;;
21663;SDS011;10993;52.510;13.456;2022-10-16T02:06:51;3.05;;;1.50;;
21663;SDS011;10993;52.510;13.456;2022-10-16T02:11:53;3.08;;;1.60;;
21663;SDS011;10993;52.510;13.456;2022-10-16T02:16:58;5.07;;;1.40;;
21663;SDS011;10993;52.510;13.456;2022-10-16T02:22:00;3.08;;;1.00;;
21663;SDS011;10993;52.510;13.456;2022-10-16T02:27:05;2.42;;;1.30;;
21663;SDS011;10993;52.510;13.456;2022-10-16T02:32:11;3.47;;;1.50;;
21663;SDS011;10993;52.510;13.456;2022-10-16T02:37:14;2.03;;;1.00;;
21663;SDS011;10993;52.510;13.456;2022-10-16T02:42:17;2.45;;;1.20;;
21663;SDS011;10993;52.510;13.456;2022-10-16T02:47:20;2.17;;;1.00;;
21663;SDS011;10993;52.510;13.456;2022-10-16T02:52:20;2.08;;;1.27;;
21663;SDS011;10993;52.510;13.456;2022-10-16T02:57:20;2.58;;;1.35;;
21663;SDS011;10993;52.510;13.456;2022-10-16T03:02:22;2.40;;;1.00;;
21663;SDS011;10993;52.510;13.456;2022-10-16T03:07:22;2.45;;;1.10;;
21663;SDS011;10993;52.510;13.456;2022-10-16T03:12:23;2.10;;;1.17;;
21663;SDS011;10993;52.510;13.456;2022-10-16T03:17:24;2.00;;;1.00;;
21663;SDS011;10993;52.510;13.456;2022-10-16T03:22:25;2.58;;;1.15;;
21663;SDS011;10993;52.510;13.456;2022-10-16T03:27:25;1.48;;;1.02;;
21663;SDS011;10993;52.510;13.456;2022-10-16T03:32:27;3.55;;;1.25;;
21663;SDS011;10993;52.510;13.456;2022-10-16T03:37:28;2.08;;;1.00;;
21663;SDS011;10993;52.510;13.456;2022-10-16T03:42:28;2.13;;;1.30;;
21663;SDS011;10993;52.510;13.456;2022-10-16T03:47:30;3.30;;;1.50;;
21663;SDS011;10993;52.510;13.456;2022-10-16T03:52:32;3.85;;;1.48;;
21663;SDS011;10993;52.510;13.456;2022-10-16T03:57:33;2.88;;;1.50;;
21663;SDS011;10993;52.510;13.456;2022-10-16T04:02:35;3.65;;;1.52;;
21663;SDS011;10993;52.510;13.456;2022-10-16T04:07:35;2.95;;;1.20;;
21663;SDS011;10993;52.510;13.456;2022-10-16T04:12:36;4.85;;;1.27;;
21663;SDS011;10993;52.510;13.456;2022-10-16T04:17:37;2.55;;;1.55;;
21663;SDS011;10993;52.510;13.456;2022-10-16T04:22:38;2.53;;;1.45;;
21663;SDS011;10993;52.510;13.456;2022-10-16T04:27:39;3.13;;;1.65;;
21663;SDS011;10993;52.510;13.456;2022-10-16T04:32:40;3.05;;;1.27;;
21663;SDS011;10993;52.510;13.456;2022-10-16T04:37:41;2.10;;;1.00;;
21663;SDS011;10993;52.510;13.456;2022-10-16T04:42:41;1.63;;;0.98;;
21663;SDS011;10993;52.510;13.456;2022-10-16T04:47:43;3.10;;;1.02;;
21663;SDS011;10993;52.510;13.456;2022-10-16T04:52:43;2.72;;;1.40;;
21663;SDS011;10993;52.510;13.456;2022-10-16T04:57:43;2.35;;;1.20;;
21663;SDS011;10993;52.510;13.456;2022-10-16T05:02:45;2.83;;;1.40;;
21663;SDS011;10993;52.510;13.456;2022-10-16T05:07:45;2.35;;;1.33;;
21663;SDS011;10993;52.510;13.456;2022-10-16T05:12:46;2.40;;;1.38;;
21663;SDS011;10993;52.510;13.456;2022-10-16T05:17:51;2.33;;;1.42;;
21663;SDS011;10993;52.510;13.456;2022-10-16T05:22:52;2.65;;;1.55;;
21663;SDS011;10993;52.510;13.456;2022-10-16T05:27:52;2.83;;;1.40;;
21663;SDS011;10993;52.510;13.456;2022-10-16T05:32:54;3.30;;;1.75;;
21663;SDS011;10993;52.510;13.456;2022-10-16T05:37:54;3.53;;;1.70;;
21663;SDS011;10993;52.510;13.456;2022-10-16T05:42:55;2.67;;;1.70;;
21663;SDS011;10993;52.510;13.456;2022-10-16T05:47:57;3.28;;;1.88;;
21663;SDS011;10993;52.510;13.456;2022-10-16T05:52:57;2.72;;;1.25;;
21663;SDS011;10993;52.510;13.456;2022-10-16T05:57:58;2.55;;;1.48;;
21663;SDS011;10993;52.510;13.456;2022-10-16T06:02:59;2.63;;;1.38;;
21663;SDS011;10993;52.510;13.456;2022-10-16T06:08:00;3.08;;;1.45;;
21663;SDS011;10993;52.510;13.456;2022-10-16T06:13:00;3.85;;;1.33;;
21663;SDS011;10993;52.510;13.456;2022-10-16T06:18:02;3.13;;;1.50;;
21663;SDS011;10993;52.510;13.456;2022-10-16T06:23:02;1.98;;;1.25;;
21663;SDS011;10993;52.510;13.456;2022-10-16T06:28:04;1.95;;;1.23;;
21663;SDS011;10993;52.510;13.456;2022-10-16T06:33:05;4.30;;;1.40;;
21663;SDS011;10993;52.510;13.456;2022-10-16T06:38:06;2.25;;;1.20;;
21663;SDS011;10993;52.510;13.456;2022-10-16T06:43:06;4.22;;;1.30;;
21663;SDS011;10993;52.510;13.456;2022-10-16T06:48:08;1.88;;;1.23;;
21663;SDS011;10993;52.510;13.456;2022-10-16T06:53:08;2.38;;;1.20;;
21663;SDS011;10993;52.510;13.456;2022-10-16T06:58:08;5.47;;;1.87;;
21663;SDS011;10993;52.510;13.456;2022-10-16T07:03:10;4.03;;;1.40;;
21663;SDS011;10993;52.510;13.456;2022-10-16T07:08:10;3.28;;;1.40;;
21663;SDS011;10993;52.510;13.456;2022-10-16T07:13:11;1.67;;;1.10;;
21663;SDS011;10993;52.510;13.456;2022-10-16T07:18:15;1.75;;;0.98;;
21663;SDS011;10993;52.510;13.456;2022-10-16T07:23:16;1.50;;;1.10;;
21663;SDS011;10993;52.510;13.456;2022-10-16T07:28:16;3.30;;;1.00;;
21663;SDS011;10993;52.510;13.456;2022-10-16T07:33:18;1.90;;;1.08;;
21663;SDS011;10993;52.510;13.456;2022-10-16T07:38:19;1.67;;;1.00;;
21663;SDS011;10993;52.510;13.456;2022-10-16T07:43:20;2.35;;;1.23;;
21663;SDS011;10993;52.510;13.456;2022-10-16T07:48:22;3.80;;;1.40;;
21663;SDS011;10993;52.510;13.456;2022-10-16T07:53:23;1.90;;;1.10;;
21663;SDS011;10993;52.510;13.456;2022-10-16T07:58:23;4.23;;;2.13;;
21663;SDS011;10993;52.510;13.456;2022-10-16T08:03:25;4.55;;;1.20;;
21663;SDS011;10993;52.510;13.456;2022-10-16T08:08:26;3.05;;;1.58;;
21663;SDS011;10993;52.510;13.456;2022-10-16T08:13:26;1.85;;;1.00;;
21663;SDS011;10993;52.510;13.456;2022-10-16T08:18:28;2.92;;;1.30;;
21663;SDS011;10993;52.510;13.456;2022-10-16T08:23:28;2.28;;;1.13;;
21663;SDS011;10993;52.510;13.456;2022-10-16T08:28:29;3.22;;;1.27;;
21663;SDS011;10993;52.510;13.456;2022-10-16T08:33:31;2.47;;;1.05;;
21663;SDS011;10993;52.510;13.456;2022-10-16T08:38:31;2.10;;;0.85;;
21663;SDS011;10993;52.510;13.456;2022-10-16T08:43:38;2.65;;;1.02;;
21663;SDS011;10993;52.510;13.456;2022-10-16T08:48:52;2.40;;;1.00;;
21663;SDS011;10993;52.510;13.456;2022-10-16T08:53:55;3.60;;;1.25;;
21663;SDS011;10993;52.510;13.456;2022-10-16T08:58:57;2.28;;;1.17;;
21663;SDS011;10993;52.510;13.456;2022-10-16T09:04:04;1.73;;;0.98;;
21663;SDS011;10993;52.510;13.456;2022-10-16T09:09:35;2.88;;;1.05;;
21663;SDS011;10993;52.510;13.456;2022-10-16T09:14:57;1.77;;;0.90;;
21663;SDS011;10993;52.510;13.456;2022-10-16T09:20:15;2.72;;;1.10;;
21663;SDS011;10993;52.510;13.456;2022-10-16T09:25:23;1.52;;;0.80;;
21663;SDS011;10993;52.510;13.456;2022-10-16T09:30:25;1.17;;;0.70;;
21663;SDS011;10993;52.510;13.456;2022-10-16T09:35:32;1.60;;;0.77;;
21663;SDS011;10993;52.510;13.456;2022-10-16T09:40:37;2.25;;;1.40;;
21663;SDS011;10993;52.510;13.456;2022-10-16T09:45:41;1.25;;;0.70;;
21663;SDS011;10993;52.510;13.456;2022-10-16T09:50:43;4.57;;;2.10;;
21663;SDS011;10993;52.510;13.456;2022-10-16T09:55:50;2.38;;;0.80;;
21663;SDS011;10993;52.510;13.456;2022-10-16T10:00:52;2.15;;;1.23;;
21663;SDS011;10993;52.510;13.456;2022-10-16T10:05:55;4.18;;;2.00;;
21663;SDS011;10993;52.510;13.456;2022-10-16T10:10:55;2.22;;;1.08;;
21663;SDS011;10993;52.510;13.456;2022-10-16T10:15:57;5.20;;;1.58;;
21663;SDS011;10993;52.510;13.456;2022-10-16T10:20:59;1.40;;;0.70;;
21663;SDS011;10993;52.510;13.456;2022-10-16T10:26:01;9.65;;;1.73;;
21663;SDS011;10993;52.510;13.456;2022-10-16T10:31:10;2.83;;;1.33;;
21663;SDS011;10993;52.510;13.456;2022-10-16T10:36:27;2.65;;;1.50;;
21663;SDS011;10993;52.510;13.456;2022-10-16T10:47:06;4.07;;;1.50;;
21663;SDS011;10993;52.510;13.456;2022-10-16T10:52:29;2.00;;;0.95;;
21663;SDS011;10993;52.510;13.456;2022-10-16T10:57:43;3.10;;;1.63;;
21663;SDS011;10993;52.510;13.456;2022-10-16T11:02:59;0.98;;;0.57;;
21663;SDS011;10993;52.510;13.456;2022-10-16T11:08:13;6.65;;;1.95;;
21663;SDS011;10993;52.510;13.456;2022-10-16T11:13:23;1.30;;;0.50;;
21663;SDS011;10993;52.510;13.456;2022-10-16T11:18:32;2.38;;;1.20;;
21663;SDS011;10993;52.510;13.456;2022-10-16T11:23:47;2.42;;;1.20;;
21663;SDS011;10993;52.510;13.456;2022-10-16T11:28:53;1.33;;;0.63;;
21663;SDS011;10993;52.510;13.456;2022-10-16T11:33:58;1.80;;;0.88;;
21663;SDS011;10993;52.510;13.456;2022-10-16T11:39:07;2.30;;;1.00;;
21663;SDS011;10993;52.510;13.456;2022-10-16T11:44:20;1.77;;;1.00;;
21663;SDS011;10993;52.510;13.456;2022-10-16T11:49:33;4.65;;;1.95;;
21663;SDS011;10993;52.510;13.456;2022-10-16T11:54:39;3.20;;;1.83;;
21663;SDS011;10993;52.510;13.456;2022-10-16T11:59:46;4.20;;;2.00;;
21663;SDS011;10993;52.510;13.456;2022-10-16T12:04:50;2.65;;;1.58;;
21663;SDS011;10993;52.510;13.456;2022-10-16T12:10:10;5.03;;;2.35;;
21663;SDS011;10993;52.510;13.456;2022-10-16T12:15:22;10.85;;;5.35;;
21663;SDS011;10993;52.510;13.456;2022-10-16T12:20:26;4.82;;;1.95;;
21663;SDS011;10993;52.510;13.456;2022-10-16T12:25:31;2.15;;;1.00;;
21663;SDS011;10993;52.510;13.456;2022-10-16T12:30:34;5.55;;;1.80;;
21663;SDS011;10993;52.510;13.456;2022-10-16T12:35:43;5.55;;;2.42;;
21663;SDS011;10993;52.510;13.456;2022-10-16T12:40:47;5.05;;;1.63;;
21663;SDS011;10993;52.510;13.456;2022-10-16T12:46:02;5.35;;;2.08;;
21663;SDS011;10993;52.510;13.456;2022-10-16T12:56:24;2.55;;;0.90;;
21663;SDS011;10993;52.510;13.456;2022-10-16T13:01:36;3.92;;;1.40;;
21663;SDS011;10993;52.510;13.456;2022-10-16T13:06:43;3.50;;;1.27;;
21663;SDS011;10993;52.510;13.456;2022-10-16T13:11:55;5.82;;;2.28;;
21663;SDS011;10993;52.510;13.456;2022-10-16T13:17:09;3.65;;;1.67;;
21663;SDS011;10993;52.510;13.456;2022-10-16T13:22:19;4.03;;;1.40;;
21663;SDS011;10993;52.510;13.456;2022-10-16T13:27:30;3.05;;;1.13;;
21663;SDS011;10993;52.510;13.456;2022-10-16T13:32:40;5.03;;;2.20;;
21663;SDS011;10993;52.510;13.456;2022-10-16T13:37:46;3.13;;;1.33;;
21663;SDS011;10993;52.510;13.456;2022-10-16T13:42:47;2.10;;;1.00;;
21663;SDS011;10993;52.510;13.456;2022-10-16T13:48:00;2.75;;;1.17;;
21663;SDS011;10993;52.510;13.456;2022-10-16T13:53:05;2.28;;;1.42;;
21663;SDS011;10993;52.510;13.456;2022-10-16T13:58:10;2.90;;;1.25;;
21663;SDS011;10993;52.510;13.456;2022-10-16T14:03:13;2.25;;;1.15;;
21663;SDS011;10993;52.510;13.456;2022-10-16T14:08:15;7.25;;;3.42;;
21663;SDS011;10993;52.510;13.456;2022-10-16T14:13:18;2.75;;;1.70;;
21663;SDS011;10993;52.510;13.456;2022-10-16T14:18:23;2.85;;;1.48;;
21663;SDS011;10993;52.510;13.456;2022-10-16T14:23:28;2.42;;;1.10;;
21663;SDS011;10993;52.510;13.456;2022-10-16T14:28:31;7.43;;;3.50;;
21663;SDS011;10993;52.510;13.456;2022-10-16T14:33:32;4.78;;;2.22;;
21663;SDS011;10993;52.510;13.456;2022-10-16T14:38:34;3.05;;;1.30;;
21663;SDS011;10993;52.510;13.456;2022-10-16T14:43:36;4.82;;;2.40;;
21663;SDS011;10993;52.510;13.456;2022-10-16T14:48:40;5.05;;;2.35;;
21663;SDS011;10993;52.510;13.456;2022-10-16T14:53:41;4.15;;;1.98;;
21663;SDS011;10993;52.510;13.456;2022-10-16T14:58:42;3.17;;;1.55;;
21663;SDS011;10993;52.510;13.456;2022-10-16T15:03:46;2.20;;;0.93;;
21663;SDS011;10993;52.510;13.456;2022-10-16T15:08:46;4.00;;;1.30;;
21663;SDS011;10993;52.510;13.456;2022-10-16T15:13:48;4.85;;;2.13;;
21663;SDS011;10993;52.510;13.456;2022-10-16T15:18:49;5.25;;;2.75;;
21663;SDS011;10993;52.510;13.456;2022-10-16T15:23:49;5.47;;;2.75;;
21663;SDS011;10993;52.510;13.456;2022-10-16T15:28:52;2.92;;;1.33;;
21663;SDS011;10993;52.510;13.456;2022-10-16T15:33:53;2.40;;;1.00;;
21663;SDS011;10993;52.510;13.456;2022-10-16T15:39:01;2.60;;;1.35;;
21663;SDS011;10993;52.510;13.456;2022-10-16T15:44:06;4.25;;;1.35;;
21663;SDS011;10993;52.510;13.456;2022-10-16T15:49:12;2.67;;;1.67;;
21663;SDS011;10993;52.510;13.456;2022-10-16T15:54:13;8.30;;;3.30;;
21663;SDS011;10993;52.510;13.456;2022-10-16T15:59:16;4.82;;;2.90;;
21663;SDS011;10993;52.510;13.456;2022-10-16T16:04:16;6.65;;;3.95;;
21663;SDS011;10993;52.510;13.456;2022-10-16T16:09:18;6.32;;;3.55;;
21663;SDS011;10993;52.510;13.456;2022-10-16T16:14:19;6.33;;;3.57;;
21663;SDS011;10993;52.510;13.456;2022-10-16T16:19:20;4.90;;;2.60;;
21663;SDS011;10993;52.510;13.456;2022-10-16T16:24:21;3.85;;;2.05;;
21663;SDS011;10993;52.510;13.456;2022-10-16T16:29:22;9.88;;;5.15;;
21663;SDS011;10993;52.510;13.456;2022-10-16T16:34:23;13.60;;;6.22;;
21663;SDS011;10993;52.510;13.456;2022-10-16T16:39:24;17.80;;;7.53;;
21663;SDS011;10993;52.510;13.456;2022-10-16T16:44:26;13.40;;;6.85;;
21663;SDS011;10993;52.510;13.456;2022-10-16T16:49:26;9.10;;;4.28;;
21663;SDS011;10993;52.510;13.456;2022-10-16T16:54:26;81.63;;;37.80;;
21663;SDS011;10993;52.510;13.456;2022-10-16T16:59:28;30.30;;;14.75;;
21663;SDS011;10993;52.510;13.456;2022-10-16T17:04:32;8.25;;;4.78;;
21663;SDS011;10993;52.510;13.456;2022-10-16T17:09:32;27.30;;;12.98;;
21663;SDS011;10993;52.510;13.456;2022-10-16T17:14:34;14.43;;;7.95;;
21663;SDS011;10993;52.510;13.456;2022-10-16T17:19:34;11.23;;;6.70;;
21663;SDS011;10993;52.510;13.456;2022-10-16T17:24:35;10.30;;;5.38;;
21663;SDS011;10993;52.510;13.456;2022-10-16T17:29:37;11.07;;;5.13;;
21663;SDS011;10993;52.510;13.456;2022-10-16T17:34:37;11.57;;;4.97;;
21663;SDS011;10993;52.510;13.456;2022-10-16T17:39:37;9.73;;;4.57;;
21663;SDS011;10993;52.510;13.456;2022-10-16T17:44:39;12.37;;;6.97;;
21663;SDS011;10993;52.510;13.456;2022-10-16T17:49:39;9.57;;;4.82;;
21663;SDS011;10993;52.510;13.456;2022-10-16T17:54:40;10.75;;;6.43;;
21663;SDS011;10993;52.510;13.456;2022-10-16T17:59:42;14.07;;;7.05;;
21663;SDS011;10993;52.510;13.456;2022-10-16T18:04:42;22.67;;;10.02;;
21663;SDS011;10993;52.510;13.456;2022-10-16T18:09:43;18.27;;;9.23;;
21663;SDS011;10993;52.510;13.456;2022-10-16T18:14:44;13.63;;;6.78;;
21663;SDS011;10993;52.510;13.456;2022-10-16T18:19:45;11.45;;;6.25;;
21663;SDS011;10993;52.510;13.456;2022-10-16T18:24:45;20.50;;;10.70;;
21663;SDS011;10993;52.510;13.456;2022-10-16T18:29:47;12.57;;;6.90;;
21663;SDS011;10993;52.510;13.456;2022-10-16T18:34:47;16.50;;;6.70;;
21663;SDS011;10993;52.510;13.456;2022-10-16T18:39:47;12.65;;;6.43;;
21663;SDS011;10993;52.510;13.456;2022-10-16T18:44:50;13.77;;;7.65;;
21663;SDS011;10993;52.510;13.456;2022-10-16T18:49:50;17.48;;;12.80;;
21663;SDS011;10993;52.510;13.456;2022-10-16T18:54:53;16.73;;;8.82;;
21663;SDS011;10993;52.510;13.456;2022-10-16T18:59:56;12.82;;;7.55;;
21663;SDS011;10993;52.510;13.456;2022-10-16T19:04:56;18.35;;;8.85;;
21663;SDS011;10993;52.510;13.456;2022-10-16T19:09:57;18.30;;;9.00;;
21663;SDS011;10993;52.510;13.456;2022-10-16T19:14:59;13.18;;;7.60;;
21663;SDS011;10993;52.510;13.456;2022-10-16T19:20:00;9.95;;;5.50;;
21663;SDS011;10993;52.510;13.456;2022-10-16T19:25:00;15.43;;;7.75;;
21663;SDS011;10993;52.510;13.456;2022-10-16T19:30:02;18.45;;;10.50;;
21663;SDS011;10993;52.510;13.456;2022-10-16T19:35:03;18.35;;;10.15;;
21663;SDS011;10993;52.510;13.456;2022-10-16T19:40:04;19.08;;;9.85;;
21663;SDS011;10993;52.510;13.456;2022-10-16T19:45:08;19.90;;;10.30;;
21663;SDS011;10993;52.510;13.456;2022-10-16T19:50:09;17.55;;;8.88;;
21663;SDS011;10993;52.510;13.456;2022-10-16T19:55:09;20.00;;;10.10;;
21663;SDS011;10993;52.510;13.456;2022-10-16T20:00:12;17.50;;;9.80;;
21663;SDS011;10993;52.510;13.456;2022-10-16T20:05:13;18.17;;;8.85;;
21663;SDS011;10993;52.510;13.456;2022-10-16T20:10:13;15.25;;;8.95;;
21663;SDS011;10993;52.510;13.456;2022-10-16T20:15:15;18.60;;;10.07;;
21663;SDS011;10993;52.510;13.456;2022-10-16T20:20:15;15.70;;;7.75;;
21663;SDS011;10993;52.510;13.456;2022-10-16T20:25:16;16.13;;;8.45;;
21663;SDS011;10993;52.510;13.456;2022-10-16T20:30:17;18.98;;;9.73;;
21663;SDS011;10993;52.510;13.456;2022-10-16T20:35:18;16.98;;;7.47;;
21663;SDS011;10993;52.510;13.456;2022-10-16T20:40:18;19.17;;;9.25;;
21663;SDS011;10993;52.510;13.456;2022-10-16T20:45:20;16.00;;;8.95;;
21663;SDS011;10993;52.510;13.456;2022-10-16T20:50:20;10.25;;;5.75;;
21663;SDS011;10993;52.510;13.456;2022-10-16T20:55:21;11.43;;;6.65;;
21663;SDS011;10993;52.510;13.456;2022-10-16T21:00:23;13.23;;;7.00;;
21663;SDS011;10993;52.510;13.456;2022-10-16T21:05:23;12.75;;;7.15;;
21663;SDS011;10993;52.510;13.456;2022-10-16T21:10:28;13.20;;;6.80;;
21663;SDS011;10993;52.510;13.456;2022-10-16T21:15:30;13.52;;;7.80;;
21663;SDS011;10993;52.510;13.456;2022-10-16T21:20:30;14.82;;;7.40;;
21663;SDS011;10993;52.510;13.456;2022-10-16T21:25:30;12.20;;;7.00;;
21663;SDS011;10993;52.510;13.456;2022-10-16T21:30:32;12.57;;;6.82;;
21663;SDS011;10993;52.510;13.456;2022-10-16T21:35:32;12.98;;;6.18;;
21663;SDS011;10993;52.510;13.456;2022-10-16T21:40:33;14.65;;;8.88;;
21663;SDS011;10993;52.510;13.456;2022-10-16T21:45:35;17.77;;;9.73;;
21663;SDS011;10993;52.510;13.456;2022-10-16T21:50:35;17.08;;;9.98;;
21663;SDS011;10993;52.510;13.456;2022-10-16T21:55:35;22.67;;;12.68;;
21663;SDS011;10993;52.510;13.456;2022-10-16T22:00:37;18.17;;;9.60;;
21663;SDS011;10993;52.510;13.456;2022-10-16T22:05:38;18.65;;;10.38;;
21663;SDS011;10993;52.510;13.456;2022-10-16T22:10:38;17.45;;;9.70;;
21663;SDS011;10993;52.510;13.456;2022-10-16T22:15:47;20.88;;;11.13;;
21663;SDS011;10993;52.510;13.456;2022-10-16T22:20:47;18.95;;;10.95;;
21663;SDS011;10993;52.510;13.456;2022-10-16T22:25:48;12.55;;;7.03;;
21663;SDS011;10993;52.510;13.456;2022-10-16T22:30:50;13.77;;;6.97;;
21663;SDS011;10993;52.510;13.456;2022-10-16T22:35:50;15.30;;;7.93;;
21663;SDS011;10993;52.510;13.456;2022-10-16T22:40:50;12.57;;;6.72;;
21663;SDS011;10993;52.510;13.456;2022-10-16T22:45:52;14.80;;;7.85;;
21663;SDS011;10993;52.510;13.456;2022-10-16T22:50:52;12.50;;;7.10;;
21663;SDS011;10993;52.510;13.456;2022-10-16T22:55:53;12.15;;;7.13;;
21663;SDS011;10993;52.510;13.456;2022-10-16T23:00:55;12.38;;;6.53;;
21663;SDS011;10993;52.510;13.456;2022-10-16T23:05:56;12.07;;;6.80;;
21663;SDS011;10993;52.510;13.456;2022-10-16T23:10:56;10.95;;;6.05;;
21663;SDS011;10993;52.510;13.456;2022-10-16T23:16:01;16.05;;;7.25;;
21663;SDS011;10993;52.510;13.456;2022-10-16T23:21:05;13.55;;;6.65;;
21663;SDS011;10993;52.510;13.456;2022-10-16T23:26:07;10.45;;;6.35;;
21663;SDS011;10993;52.510;13.456;2022-10-16T23:31:10;9.60;;;5.90;;
21663;SDS011;10993;52.510;13.456;2022-10-16T23:36:13;10.70;;;6.10;;
21663;SDS011;10993;52.510;13.456;2022-10-16T23:41:15;8.48;;;4.97;;
21663;SDS011;10993;52.510;13.456;2022-10-16T23:46:17;10.68;;;5.97;;
21663;SDS011;10993;52.510;13.456;2022-10-16T23:51:18;9.32;;;4.78;;
21663;SDS011;10993;52.510;13.456;2022-10-16T23:56:18;8.57;;;5.05;;
